createdAt,value
2024-02-27T00:00:16.249Z,95464.34
2024-02-27T00:02:42.813Z,95467.25
2024-02-27T00:05:09.478Z,95467.91
2024-02-27T00:07:36.402Z,95473.97
2024-02-27T00:10:05.319Z,95487.25
2024-02-27T00:12:32.689Z,95491.06
2024-02-27T00:14:59.475Z,95501.91
2024-02-27T00:17:26.500Z,95508.66
2024-02-27T00:19:53.227Z,95511.69
2024-02-27T00:22:19.850Z,95509.59
2024-02-27T00:24:46.402Z,95509.59
2024-02-27T00:27:13.523Z,95518.88
2024-02-27T00:29:41.262Z,95525.44
2024-02-27T00:32:08.441Z,95521.94
2024-02-27T00:34:36.712Z,95517.94
2024-02-27T00:37:03.807Z,95522.59
2024-02-27T00:39:30.329Z,95514.28
2024-02-27T00:41:58.687Z,95506.78
2024-02-27T00:44:25.626Z,95510.16
2024-02-27T00:46:52.417Z,95511.44
2024-02-27T00:49:19.240Z,95514.81
2024-02-27T00:51:46.244Z,95507.31
2024-02-27T00:54:12.877Z,95513.41
2024-02-27T00:56:39.725Z,95512.13
2024-02-27T00:59:06.241Z,95505.13
2024-02-27T01:01:33.180Z,95502.72
2024-02-27T01:03:59.658Z,95500.31
2024-02-27T01:06:26.646Z,95502.09
2024-02-27T01:08:53.244Z,95508.97
2024-02-27T01:11:20.183Z,95510.09
2024-02-27T01:13:46.708Z,95516.00
2024-02-27T01:16:13.467Z,95516.47
2024-02-27T01:18:41.104Z,95512.16
2024-02-27T01:21:08.287Z,95517.59
2024-02-27T01:23:34.947Z,95514.22
2024-02-27T01:26:01.758Z,95514.72
2024-02-27T01:28:28.217Z,95510.53
2024-02-27T01:30:54.787Z,95509.41
2024-02-27T01:33:21.799Z,95492.34
2024-02-27T01:35:48.871Z,95498.22
2024-02-27T01:38:15.902Z,95495.06
2024-02-27T01:40:42.483Z,95490.75
2024-02-27T01:43:25.890Z,95484.84
2024-02-27T01:46:05.142Z,95489.16
2024-02-27T01:48:32.081Z,95488.38
2024-02-27T01:50:59.041Z,95484.84
2024-02-27T01:53:25.757Z,95491.88
2024-02-27T01:55:52.299Z,95487.56
2024-02-27T01:58:19.399Z,95498.88
2024-02-27T02:00:47.579Z,95492.34
2024-02-27T02:03:16.827Z,95493.59
2024-02-27T02:05:43.468Z,95492.94
2024-02-27T02:08:10.430Z,95500.78
2024-02-27T02:10:36.904Z,95502.38
2024-02-27T02:13:04.173Z,95493.09
2024-02-27T02:15:30.809Z,95496.94
2024-02-27T02:17:57.775Z,95498.22
2024-02-27T02:20:24.356Z,95501.72
2024-02-27T02:22:51.128Z,95500.59
2024-02-27T02:25:21.467Z,95504.91
2024-02-27T02:27:50.181Z,95502.19
2024-02-27T02:30:16.773Z,95501.06
2024-02-27T02:32:48.344Z,95511.59
2024-02-27T02:35:15.564Z,95509.19
2024-02-27T02:37:43.655Z,95509.69
2024-02-27T02:40:10.643Z,95521.03
2024-02-27T02:42:40.017Z,95523.06
2024-02-27T02:45:07.028Z,95518.13
2024-02-27T02:47:33.601Z,95526.09
2024-02-27T02:50:01.017Z,95529.75
2024-02-27T02:52:27.514Z,95527.81
2024-02-27T02:54:54.348Z,95528.28
2024-02-27T02:57:21.231Z,95531.16
2024-02-27T02:59:47.762Z,95536.59
2024-02-27T03:02:14.258Z,95537.72
2024-02-27T03:04:41.064Z,95545.53
2024-02-27T03:07:08.514Z,95543.16
2024-02-27T03:09:35.196Z,95548.25
2024-02-27T03:12:02.832Z,95547.94
2024-02-27T03:14:29.490Z,95553.03
2024-02-27T03:16:56.086Z,95557.34
2024-02-27T03:19:23.204Z,95554.63
2024-02-27T03:21:49.780Z,95560.84
2024-02-27T03:24:16.599Z,95566.28
2024-02-27T03:26:43.817Z,95564.06
2024-02-27T03:29:10.598Z,95559.88
2024-02-27T03:31:37.194Z,95569.63
2024-02-27T03:34:04.185Z,95568.97
2024-02-27T03:36:30.770Z,95564.34
2024-02-27T03:38:57.770Z,95577.28
2024-02-27T03:41:24.401Z,95575.03
2024-02-27T03:43:51.140Z,95577.41
2024-02-27T03:46:17.626Z,95580.59
2024-02-27T03:48:44.488Z,95582.19
2024-02-27T03:51:11.051Z,95580.59
2024-02-27T03:53:37.797Z,95583.78
2024-02-27T03:56:06.800Z,95581.06
2024-02-27T03:58:35.684Z,95590.50
2024-02-27T04:01:02.220Z,95588.59
2024-02-27T04:03:29.074Z,95594.03
2024-02-27T04:05:55.665Z,95592.44
2024-02-27T04:08:22.423Z,95592.44
2024-02-27T04:10:48.975Z,95593.53
2024-02-27T04:13:15.485Z,95600.56
2024-02-27T04:15:42.435Z,95602.47
2024-02-27T04:18:09.085Z,95602.81
2024-02-27T04:20:36.011Z,95612.53
2024-02-27T04:23:02.579Z,95619.09
2024-02-27T04:25:29.269Z,95617.84
2024-02-27T04:27:55.749Z,95625.66
2024-02-27T04:30:22.566Z,95623.28
2024-02-27T04:32:49.162Z,95626.00
2024-02-27T04:35:16.161Z,95631.28
2024-02-27T04:37:42.740Z,95650.31
2024-02-27T04:40:10.770Z,95646.47
2024-02-27T04:42:37.422Z,95643.75
2024-02-27T04:45:04.695Z,95648.72
2024-02-27T04:47:31.397Z,95656.88
2024-02-27T04:49:58.236Z,95657.16
2024-02-27T04:52:24.777Z,95647.41
2024-02-27T04:54:51.737Z,95650.94
2024-02-27T04:57:19.088Z,95642.00
2024-02-27T04:59:46.012Z,95658.28
2024-02-27T05:02:12.502Z,95653.97
2024-02-27T05:04:39.395Z,95657.81
2024-02-27T05:07:05.980Z,95659.41
2024-02-27T05:09:32.826Z,95657.81
2024-02-27T05:11:59.746Z,95660.53
2024-02-27T05:14:27.117Z,95672.53
2024-02-27T05:16:54.395Z,95661.66
2024-02-27T05:19:21.296Z,95666.63
2024-02-27T05:21:48.319Z,95672.06
2024-02-27T05:24:14.832Z,95669.34
2024-02-27T05:26:41.842Z,95673.19
2024-02-27T05:29:09.019Z,95671.59
2024-02-27T05:31:37.196Z,95676.22
2024-02-27T05:34:04.412Z,95675.44
2024-02-27T05:36:31.348Z,95674.59
2024-02-27T05:38:58.039Z,95681.16
2024-02-27T05:41:24.697Z,95689.63
2024-02-27T05:43:52.187Z,95688.84
2024-02-27T05:46:18.826Z,95694.59
2024-02-27T05:48:45.468Z,95698.13
2024-02-27T05:51:12.232Z,95702.28
2024-02-27T05:53:38.917Z,95702.28
2024-02-27T05:56:05.988Z,95706.91
2024-02-27T05:58:32.507Z,95700.38
2024-02-27T06:00:59.530Z,95705.00
2024-02-27T06:03:26.444Z,95699.56
2024-02-27T06:05:53.704Z,95708.97
2024-02-27T06:08:22.150Z,95703.53
2024-02-27T06:10:48.787Z,95710.44
2024-02-27T06:13:15.412Z,95720.97
2024-02-27T06:15:42.026Z,95719.84
2024-02-27T06:18:14.652Z,95725.75
2024-02-27T06:21:00.830Z,95736.63
2024-02-27T06:23:32.603Z,95727.34
2024-02-27T06:25:59.274Z,95727.03
2024-02-27T06:28:25.800Z,95727.84
2024-02-27T06:30:52.484Z,95730.22
2024-02-27T06:33:19.188Z,95738.84
2024-02-27T06:35:45.806Z,95738.53
2024-02-27T06:38:12.781Z,95737.41
2024-02-27T06:40:39.293Z,95755.78
2024-02-27T06:43:07.027Z,95749.25
2024-02-27T06:45:33.759Z,95760.25
2024-02-27T06:48:00.982Z,95755.75
2024-02-27T06:50:27.606Z,95763.28
2024-02-27T06:52:54.781Z,95766.28
2024-02-27T06:55:30.069Z,95777.00
2024-02-27T06:57:56.942Z,95772.84
2024-02-27T07:00:23.624Z,95777.00
2024-02-27T07:02:51.084Z,95777.16
2024-02-27T07:05:17.865Z,95779.06
2024-02-27T07:07:47.701Z,95778.56
2024-02-27T07:10:17.037Z,95785.06
2024-02-27T07:12:43.944Z,95767.47
2024-02-27T07:15:14.869Z,95774.47
2024-02-27T07:17:41.735Z,95777.63
2024-02-27T07:20:12.344Z,95772.03
2024-02-27T07:22:41.162Z,95775.22
2024-02-27T07:25:09.822Z,95772.13
2024-02-27T07:27:36.847Z,95764.41
2024-02-27T07:30:05.660Z,95770.16
2024-02-27T07:32:32.184Z,95773.34
2024-02-27T07:34:58.715Z,95766.09
2024-02-27T07:37:25.304Z,95776.69
2024-02-27T07:39:52.338Z,95771.84
2024-02-27T07:42:18.898Z,95775.19
2024-02-27T07:44:45.541Z,95782.19
2024-02-27T07:47:12.331Z,95777.78
2024-02-27T07:49:45.427Z,95783.84
2024-02-27T07:52:19.864Z,95776.75
2024-02-27T07:54:49.672Z,95778.28
2024-02-27T07:57:26.757Z,95772.63
2024-02-27T07:59:55.459Z,95777.94
2024-02-27T08:02:28.532Z,95783.94
2024-02-27T08:05:04.981Z,95764.06
2024-02-27T08:07:35.434Z,95769.09
2024-02-27T08:10:02.179Z,95761.56
2024-02-27T08:12:31.373Z,95759.63
2024-02-27T08:14:58.221Z,95777.59
2024-02-27T08:17:24.968Z,95772.94
2024-02-27T08:19:51.827Z,95779.44
2024-02-27T08:22:18.405Z,95785.94
2024-02-27T08:24:45.451Z,95786.31
2024-02-27T08:27:12.029Z,95783.44
2024-02-27T08:29:39.148Z,95792.78
2024-02-27T08:32:05.656Z,95791.09
2024-02-27T08:34:32.559Z,95790.19
2024-02-27T08:36:59.222Z,95795.00
2024-02-27T08:39:26.031Z,95794.41
2024-02-27T08:41:52.550Z,95797.28
2024-02-27T08:44:19.125Z,95804.53
2024-02-27T08:46:45.807Z,95797.75
2024-02-27T08:49:12.527Z,95796.00
2024-02-27T08:51:39.164Z,95804.91
2024-02-27T08:54:06.028Z,95805.25
2024-02-27T08:56:32.764Z,95802.84
2024-02-27T08:58:59.562Z,95807.19
2024-02-27T09:01:26.075Z,95807.41
2024-02-27T09:03:53.606Z,95800.91
2024-02-27T09:06:20.336Z,95802.16
2024-02-27T09:08:47.409Z,95805.81
2024-02-27T09:11:14.099Z,95810.59
2024-02-27T09:13:41.053Z,95809.91
2024-02-27T09:16:07.954Z,95815.50
2024-02-27T09:18:34.991Z,95816.66
2024-02-27T09:21:02.619Z,95821.66
2024-02-27T09:23:29.231Z,95815.53
2024-02-27T09:25:55.744Z,95817.13
2024-02-27T09:28:22.532Z,95824.75
2024-02-27T09:30:49.202Z,95821.09
2024-02-27T09:33:16.044Z,95820.63
2024-02-27T09:35:46.485Z,95826.09
2024-02-27T09:38:13.142Z,95822.22
2024-02-27T09:40:42.541Z,95820.97
2024-02-27T09:43:19.419Z,95826.91
2024-02-27T09:45:46.339Z,95827.13
2024-02-27T09:48:15.438Z,95832.34
2024-02-27T09:50:43.858Z,95831.56
2024-02-27T09:53:12.845Z,95837.34
2024-02-27T09:55:39.962Z,95838.72
2024-02-27T09:58:09.159Z,95843.06
2024-02-27T10:00:36.740Z,95850.81
2024-02-27T10:03:04.377Z,95858.41
2024-02-27T10:05:31.918Z,95852.03
2024-02-27T10:08:02.784Z,95861.34
2024-02-27T10:10:29.926Z,95861.69
2024-02-27T10:12:56.692Z,95859.97
2024-02-27T10:15:23.528Z,95857.91
2024-02-27T10:17:50.688Z,95868.81
2024-02-27T10:20:18.942Z,95864.78
2024-02-27T10:22:45.840Z,95861.69
2024-02-27T10:25:16.415Z,95865.50
2024-02-27T10:27:43.722Z,95863.06
2024-02-27T10:30:12.037Z,95858.78
2024-02-27T10:32:42.388Z,95871.31
2024-02-27T10:35:10.511Z,95863.56
2024-02-27T10:37:37.427Z,95868.09
2024-02-27T10:40:10.839Z,95868.81
2024-02-27T10:42:40.717Z,95866.34
2024-02-27T10:45:08.277Z,95872.00
2024-02-27T10:47:35.393Z,95863.66
2024-02-27T10:50:07.296Z,95875.19
2024-02-27T10:52:37.535Z,95872.06
2024-02-27T10:55:05.095Z,95870.63
2024-02-27T10:57:34.140Z,95876.22
2024-02-27T11:00:01.403Z,95872.94
2024-02-27T11:02:30.848Z,95874.47
2024-02-27T11:05:01.066Z,95868.78
2024-02-27T11:07:30.087Z,95874.09
2024-02-27T11:09:59.477Z,95869.69
2024-02-27T11:12:29.529Z,95868.19
2024-02-27T11:15:05.255Z,95859.41
2024-02-27T11:17:38.450Z,95861.47
2024-02-27T11:20:08.295Z,95864.47
2024-02-27T11:22:35.846Z,95867.13
2024-02-27T11:25:04.916Z,95873.25
2024-02-27T11:27:32.866Z,95873.25
2024-02-27T11:30:00.798Z,95870.22
2024-02-27T11:32:27.919Z,95865.47
2024-02-27T11:34:54.657Z,95865.53
2024-02-27T11:37:23.268Z,95866.28
2024-02-27T11:39:51.176Z,95857.56
2024-02-27T11:42:40.693Z,95853.03
2024-02-27T11:45:11.973Z,95846.75
2024-02-27T11:47:42.750Z,95844.75
2024-02-27T11:50:10.696Z,95838.34
2024-02-27T11:52:37.231Z,95835.53
2024-02-27T11:55:11.408Z,95844.72
2024-02-27T11:57:38.936Z,95845.59
2024-02-27T12:00:09.879Z,95851.31
2024-02-27T12:02:37.289Z,95856.59
2024-02-27T12:05:06.707Z,95860.00
2024-02-27T12:07:34.664Z,95859.13
2024-02-27T12:10:09.718Z,95856.75
2024-02-27T12:12:40.941Z,95862.34
2024-02-27T12:15:09.598Z,95860.84
2024-02-27T12:17:40.051Z,95857.53
2024-02-27T12:20:10.640Z,95854.56
2024-02-27T12:22:46.294Z,95861.31
2024-02-27T12:25:13.678Z,95855.28
2024-02-27T12:27:40.653Z,95853.84
2024-02-27T12:30:11.989Z,95857.13
2024-02-27T12:32:44.524Z,95853.03
2024-02-27T12:35:13.091Z,95846.88
2024-02-27T12:37:43.551Z,95846.78
2024-02-27T12:40:12.359Z,95829.09
2024-02-27T12:42:49.292Z,95833.47
2024-02-27T12:45:17.392Z,95831.22
2024-02-27T12:47:55.278Z,95827.66
2024-02-27T12:50:28.322Z,95833.41
2024-02-27T12:53:06.452Z,95825.81
2024-02-27T12:55:46.694Z,95829.47
2024-02-27T12:58:23.061Z,95828.72
2024-02-27T13:00:49.652Z,95828.34
2024-02-27T13:03:16.473Z,95821.00
2024-02-27T13:05:44.294Z,95819.13
2024-02-27T13:08:11.219Z,95811.41
2024-02-27T13:10:38.281Z,95809.88
2024-02-27T13:13:14.613Z,95809.28
2024-02-27T13:15:48.245Z,95808.28
2024-02-27T13:18:15.677Z,95808.50
2024-02-27T13:20:43.206Z,95811.41
2024-02-27T13:23:20.999Z,95817.63
2024-02-27T13:25:54.018Z,95814.91
2024-02-27T13:28:21.052Z,95804.41
2024-02-27T13:30:47.714Z,95805.03
2024-02-27T13:33:15.793Z,95802.81
2024-02-27T13:35:42.517Z,95800.53
2024-02-27T13:38:09.343Z,95799.34
2024-02-27T13:40:36.397Z,95786.56
2024-02-27T13:43:04.339Z,95787.91
2024-02-27T13:45:30.864Z,95792.16
2024-02-27T13:47:57.778Z,95789.59
2024-02-27T13:50:24.888Z,95793.06
2024-02-27T13:52:51.812Z,95782.34
2024-02-27T13:55:18.404Z,95792.00
2024-02-27T13:57:45.005Z,95797.25
2024-02-27T14:00:12.915Z,95799.47
2024-02-27T14:02:42.782Z,95798.09
2024-02-27T14:05:09.961Z,95795.94
2024-02-27T14:07:38.050Z,95797.72
2024-02-27T14:10:05.825Z,95797.75
2024-02-27T14:12:40.916Z,95794.25
2024-02-27T14:15:09.816Z,95789.09
2024-02-27T14:17:36.580Z,95793.47
2024-02-27T14:20:15.282Z,95791.50
2024-02-27T14:22:42.004Z,95792.69
2024-02-27T14:25:34.589Z,95793.44
2024-02-27T14:28:02.841Z,95794.63
2024-02-27T14:30:29.719Z,95799.38
2024-02-27T14:32:56.399Z,95809.59
2024-02-27T14:35:24.184Z,95806.88
2024-02-27T14:37:50.819Z,95804.53
2024-02-27T14:40:18.644Z,95807.66
2024-02-27T14:42:48.002Z,95810.41
2024-02-27T14:45:14.860Z,95818.91
2024-02-27T14:47:41.434Z,95813.78
2024-02-27T14:50:08.891Z,95820.25
2024-02-27T14:52:35.408Z,95811.28
2024-02-27T14:55:02.453Z,95809.28
2024-02-27T14:57:29.069Z,95806.53
2024-02-27T14:59:55.875Z,95815.22
2024-02-27T15:02:22.676Z,95819.91
2024-02-27T15:04:49.363Z,95819.44
2024-02-27T15:07:16.480Z,95822.44
2024-02-27T15:09:43.770Z,95828.25
2024-02-27T15:12:10.793Z,95830.91
2024-02-27T15:14:38.080Z,95826.34
2024-02-27T15:17:07.220Z,95823.88
2024-02-27T15:19:39.246Z,95836.22
2024-02-27T15:22:09.968Z,95835.69
2024-02-27T15:25:07.088Z,95842.88
2024-02-27T15:27:26.760Z,95848.47
2024-02-27T15:29:54.004Z,95856.38
2024-02-27T15:32:27.461Z,95861.91
2024-02-27T15:34:54.332Z,95860.31
2024-02-27T15:37:21.200Z,95862.72
2024-02-27T15:39:47.798Z,95864.69
2024-02-27T15:42:14.387Z,95865.47
2024-02-27T15:44:40.922Z,95875.25
2024-02-27T15:47:07.586Z,95878.22
2024-02-27T15:49:34.330Z,95876.53
2024-02-27T15:52:01.337Z,95892.22
2024-02-27T15:54:28.048Z,95885.56
2024-02-27T15:56:54.594Z,95894.03
2024-02-27T15:59:24.062Z,95885.72
2024-02-27T16:01:50.676Z,95885.97
2024-02-27T16:04:26.365Z,95895.31
2024-02-27T16:07:02.842Z,95905.16
2024-02-27T16:09:29.475Z,95903.66
2024-02-27T16:12:03.743Z,95899.00
2024-02-27T16:14:38.346Z,95905.00
2024-02-27T16:17:05.532Z,95906.78
2024-02-27T16:19:32.223Z,95912.47
2024-02-27T16:22:08.805Z,95914.28
2024-02-27T16:24:35.420Z,95909.00
2024-02-27T16:27:02.384Z,95917.94
2024-02-27T16:29:28.893Z,95913.44
2024-02-27T16:31:55.403Z,95923.81
2024-02-27T16:34:22.544Z,95927.09
2024-02-27T16:36:49.475Z,95928.41
2024-02-27T16:39:17.091Z,95925.41
2024-02-27T16:41:44.407Z,95937.72
2024-02-27T16:44:11.130Z,95938.94
2024-02-27T16:46:38.153Z,95935.06
2024-02-27T16:49:04.767Z,95937.16
2024-02-27T16:51:31.374Z,95951.03
2024-02-27T16:53:58.150Z,95953.13
2024-02-27T16:56:24.716Z,95948.50
2024-02-27T16:58:52.501Z,95951.03
2024-02-27T17:01:19.430Z,95956.25
2024-02-27T17:03:46.768Z,95964.59
2024-02-27T17:06:16.516Z,95957.00
2024-02-27T17:08:43.394Z,95959.97
2024-02-27T17:11:10.670Z,95967.28
2024-02-27T17:13:37.792Z,95969.47
2024-02-27T17:16:04.661Z,95971.75
2024-02-27T17:18:31.683Z,95963.44
2024-02-27T17:20:58.318Z,95970.72
2024-02-27T17:23:26.058Z,95973.03
2024-02-27T17:25:57.378Z,95978.03
2024-02-27T17:28:25.924Z,95983.03
2024-02-27T17:30:52.537Z,95993.88
2024-02-27T17:33:19.472Z,96004.84
2024-02-27T17:35:46.097Z,95999.25
2024-02-27T17:38:12.924Z,96005.88
2024-02-27T17:40:39.386Z,96005.41
2024-02-27T17:43:06.039Z,96002.56
2024-02-27T17:45:32.611Z,96009.97
2024-02-27T17:47:59.243Z,96021.25
2024-02-27T17:50:25.770Z,96011.81
2024-02-27T17:52:52.477Z,96023.06
2024-02-27T17:55:18.975Z,96026.16
2024-02-27T17:57:45.676Z,96025.25
2024-02-27T18:00:12.484Z,96027.19
2024-02-27T18:02:39.330Z,96034.59
2024-02-27T18:05:07.034Z,96038.47
2024-02-27T18:07:34.161Z,96035.25
2024-02-27T18:10:00.679Z,96043.34
2024-02-27T18:12:28.802Z,96041.41
2024-02-27T18:14:57.178Z,96044.16
2024-02-27T18:17:24.554Z,96046.88
2024-02-27T18:19:51.436Z,96047.59
2024-02-27T18:22:18.141Z,96051.47
2024-02-27T18:24:45.028Z,96055.34
2024-02-27T18:27:11.903Z,96054.84
2024-02-27T18:29:40.123Z,96063.06
2024-02-27T18:32:06.937Z,96062.25
2024-02-27T18:34:33.864Z,96061.00
2024-02-27T18:37:00.462Z,96063.75
2024-02-27T18:39:27.067Z,96062.50
2024-02-27T18:41:54.019Z,96065.56
2024-02-27T18:44:20.609Z,96062.69
2024-02-27T18:46:47.191Z,96066.91
2024-02-27T18:49:13.955Z,96067.94
2024-02-27T18:51:44.079Z,96072.47
2024-02-27T18:54:11.048Z,96080.09
2024-02-27T18:56:39.467Z,96083.50
2024-02-27T18:59:06.026Z,96081.44
2024-02-27T19:01:33.215Z,96081.63
2024-02-27T19:04:00.226Z,96088.25
2024-02-27T19:06:27.212Z,96086.19
2024-02-27T19:08:54.017Z,96082.53
2024-02-27T19:11:20.745Z,96087.22
2024-02-27T19:13:47.686Z,96087.53
2024-02-27T19:16:15.817Z,96087.53
2024-02-27T19:18:42.811Z,96084.69
2024-02-27T19:21:09.527Z,96092.06
2024-02-27T19:23:36.478Z,96090.16
2024-02-27T19:26:03.160Z,96090.47
2024-02-27T19:28:29.834Z,96093.22
2024-02-27T19:30:56.437Z,96102.53
2024-02-27T19:33:23.072Z,96104.81
2024-02-27T19:35:49.860Z,96100.81
2024-02-27T19:38:19.302Z,96105.00
2024-02-27T19:40:47.081Z,96100.88
2024-02-27T19:43:13.931Z,96102.34
2024-02-27T19:45:44.653Z,96103.69
2024-02-27T19:48:11.646Z,96109.34
2024-02-27T19:50:38.587Z,96106.84
2024-02-27T19:53:06.705Z,96111.69
2024-02-27T19:55:34.076Z,96117.03
2024-02-27T19:58:00.585Z,96122.00
2024-02-27T20:00:27.367Z,96123.47
2024-02-27T20:02:53.881Z,96125.72
2024-02-27T20:05:20.665Z,96126.88
2024-02-27T20:07:47.213Z,96138.13
2024-02-27T20:10:13.901Z,96133.78
2024-02-27T20:12:42.681Z,96133.47
2024-02-27T20:15:10.452Z,96137.31
2024-02-27T20:17:37.416Z,96136.81
2024-02-27T20:20:04.545Z,96150.47
2024-02-27T20:22:31.066Z,96139.91
2024-02-27T20:24:57.872Z,96146.81
2024-02-27T20:27:24.761Z,96148.28
2024-02-27T20:29:58.869Z,96147.81
2024-02-27T20:32:30.164Z,96150.06
2024-02-27T20:34:57.071Z,96159.03
2024-02-27T20:37:24.417Z,96156.66
2024-02-27T20:39:53.140Z,96161.78
2024-02-27T20:42:19.628Z,96168.03
2024-02-27T20:44:50.206Z,96168.53
2024-02-27T20:47:17.296Z,96179.13
2024-02-27T20:49:44.066Z,96175.59
2024-02-27T20:52:10.770Z,96175.59
2024-02-27T20:54:37.676Z,96181.06
2024-02-27T20:57:04.766Z,96185.38
2024-02-27T20:59:31.362Z,96181.84
2024-02-27T21:01:58.070Z,96184.56
2024-02-27T21:04:24.870Z,96184.56
2024-02-27T21:06:51.950Z,96187.31
2024-02-27T21:09:19.286Z,96180.25
2024-02-27T21:11:46.164Z,96189.56
2024-02-27T21:14:12.918Z,96197.91
2024-02-27T21:16:39.398Z,96195.50
2024-02-27T21:19:06.167Z,96200.97
2024-02-27T21:21:32.670Z,96201.75
2024-02-27T21:24:00.416Z,96208.81
2024-02-27T21:26:26.990Z,96199.03
2024-02-27T21:28:53.861Z,96202.88
2024-02-27T21:31:20.465Z,96208.00
2024-02-27T21:33:47.013Z,96202.09
2024-02-27T21:36:13.929Z,96215.75
2024-02-27T21:38:40.417Z,96211.41
2024-02-27T21:41:07.066Z,96211.41
2024-02-27T21:43:33.551Z,96215.56
2024-02-27T21:46:02.834Z,96221.53
2024-02-27T21:48:29.441Z,96220.25
2024-02-27T21:50:56.453Z,96221.03
2024-02-27T21:53:23.299Z,96223.28
2024-02-27T21:55:50.130Z,96219.78
2024-02-27T21:58:16.602Z,96226.03
2024-02-27T22:00:44.312Z,96223.63
2024-02-27T22:03:12.985Z,96226.34
2024-02-27T22:05:39.909Z,96235.69
2024-02-27T22:08:06.856Z,96231.34
2024-02-27T22:10:33.976Z,96227.81
2024-02-27T22:13:00.631Z,96232.47
2024-02-27T22:15:28.393Z,96235.53
2024-02-27T22:17:54.978Z,96237.78
2024-02-27T22:20:21.793Z,96228.31
2024-02-27T22:22:48.380Z,96245.03
2024-02-27T22:25:15.349Z,96241.50
2024-02-27T22:27:41.906Z,96240.22
2024-02-27T22:30:10.745Z,96244.88
2024-02-27T22:32:37.447Z,96244.38
2024-02-27T22:35:04.837Z,96249.06
2024-02-27T22:37:31.298Z,96257.56
2024-02-27T22:39:58.052Z,96256.78
2024-02-27T22:42:24.575Z,96259.81
2024-02-27T22:44:51.398Z,96256.63
2024-02-27T22:47:18.042Z,96261.28
2024-02-27T22:49:45.310Z,96262.72
2024-02-27T22:52:11.868Z,96261.13
2024-02-27T22:54:38.717Z,96262.25
2024-02-27T22:57:05.446Z,96264.19
2024-02-27T22:59:32.203Z,96263.38
2024-02-27T23:01:59.072Z,96268.84
2024-02-27T23:04:25.610Z,96281.19
2024-02-27T23:06:52.373Z,96274.94
2024-02-27T23:09:18.904Z,96279.59
2024-02-27T23:11:45.772Z,96279.94
2024-02-27T23:14:12.329Z,96281.00
2024-02-27T23:16:39.276Z,96283.25
2024-02-27T23:19:07.167Z,96283.91
2024-02-27T23:21:35.399Z,96287.78
2024-02-27T23:24:02.475Z,96294.03
2024-02-27T23:26:30.686Z,96296.75
2024-02-27T23:28:57.155Z,96296.28
2024-02-27T23:31:24.011Z,96299.81
2024-02-27T23:33:52.914Z,96312.19
2024-02-27T23:36:19.767Z,96305.59
2024-02-27T23:38:46.415Z,96304.28
2024-02-27T23:41:13.178Z,96307.34
2024-02-27T23:43:41.767Z,96296.75
2024-02-27T23:46:16.259Z,96304.16
2024-02-27T23:48:42.873Z,96307.19
2024-02-27T23:51:11.034Z,96315.38
2024-02-27T23:53:37.540Z,96311.84
2024-02-27T23:56:05.226Z,96312.19
2024-02-27T23:58:31.779Z,96317.13
